sensor_id;sensor_type;location;lat;lon;timestamp;P1;durP1;ratioP1;P2;durP2;ratioP2
11496;SDS011;5805;51.542;7.230;2023-07-22T00:00:41;9.52;;;7.00;;
11496;SDS011;5805;51.542;7.230;2023-07-22T00:03:07;10.82;;;7.38;;
11496;SDS011;5805;51.542;7.230;2023-07-22T00:05:32;9.52;;;6.90;;
11496;SDS011;5805;51.542;7.230;2023-07-22T00:07:58;8.05;;;7.18;;
11496;SDS011;5805;51.542;7.230;2023-07-22T00:10:24;7.80;;;6.80;;
11496;SDS011;5805;51.542;7.230;2023-07-22T00:12:51;8.48;;;6.93;;
11496;SDS011;5805;51.542;7.230;2023-07-22T00:15:16;8.65;;;7.00;;
11496;SDS011;5805;51.542;7.230;2023-07-22T00:17:42;8.60;;;7.00;;
11496;SDS011;5805;51.542;7.230;2023-07-22T00:20:08;8.20;;;7.05;;
11496;SDS011;5805;51.542;7.230;2023-07-22T00:22:34;9.43;;;7.22;;
11496;SDS011;5805;51.542;7.230;2023-07-22T00:25:00;9.45;;;7.28;;
11496;SDS011;5805;51.542;7.230;2023-07-22T00:27:26;7.90;;;6.70;;
11496;SDS011;5805;51.542;7.230;2023-07-22T00:29:53;7.55;;;6.82;;
11496;SDS011;5805;51.542;7.230;2023-07-22T00:32:19;10.05;;;6.75;;
11496;SDS011;5805;51.542;7.230;2023-07-22T00:34:44;7.85;;;6.85;;
11496;SDS011;5805;51.542;7.230;2023-07-22T00:37:10;8.32;;;6.45;;
11496;SDS011;5805;51.542;7.230;2023-07-22T00:39:36;9.80;;;6.57;;
11496;SDS011;5805;51.542;7.230;2023-07-22T00:42:01;9.82;;;6.85;;
11496;SDS011;5805;51.542;7.230;2023-07-22T00:44:27;8.88;;;6.85;;
11496;SDS011;5805;51.542;7.230;2023-07-22T00:46:54;10.82;;;6.85;;
11496;SDS011;5805;51.542;7.230;2023-07-22T00:49:22;8.60;;;6.72;;
11496;SDS011;5805;51.542;7.230;2023-07-22T00:51:48;9.55;;;6.97;;
11496;SDS011;5805;51.542;7.230;2023-07-22T00:54:14;7.82;;;6.60;;
11496;SDS011;5805;51.542;7.230;2023-07-22T00:56:40;10.13;;;6.40;;
11496;SDS011;5805;51.542;7.230;2023-07-22T00:59:06;8.05;;;6.55;;
11496;SDS011;5805;51.542;7.230;2023-07-22T01:01:32;9.93;;;7.03;;
11496;SDS011;5805;51.542;7.230;2023-07-22T01:03:59;9.40;;;6.75;;
11496;SDS011;5805;51.542;7.230;2023-07-22T01:06:25;8.27;;;6.38;;
11496;SDS011;5805;51.542;7.230;2023-07-22T01:08:51;7.75;;;6.57;;
11496;SDS011;5805;51.542;7.230;2023-07-22T01:11:16;9.77;;;6.78;;
11496;SDS011;5805;51.542;7.230;2023-07-22T01:13:42;7.80;;;6.32;;
11496;SDS011;5805;51.542;7.230;2023-07-22T01:16:08;10.40;;;6.70;;
11496;SDS011;5805;51.542;7.230;2023-07-22T01:18:33;9.38;;;6.70;;
11496;SDS011;5805;51.542;7.230;2023-07-22T01:21:01;8.15;;;6.47;;
11496;SDS011;5805;51.542;7.230;2023-07-22T01:23:28;9.02;;;7.25;;
11496;SDS011;5805;51.542;7.230;2023-07-22T01:25:54;7.07;;;6.38;;
11496;SDS011;5805;51.542;7.230;2023-07-22T01:28:21;11.10;;;6.72;;
11496;SDS011;5805;51.542;7.230;2023-07-22T01:30:46;9.20;;;6.63;;
11496;SDS011;5805;51.542;7.230;2023-07-22T01:33:12;8.75;;;6.60;;
11496;SDS011;5805;51.542;7.230;2023-07-22T01:35:38;8.10;;;6.68;;
11496;SDS011;5805;51.542;7.230;2023-07-22T01:38:03;9.82;;;6.93;;
11496;SDS011;5805;51.542;7.230;2023-07-22T01:40:30;8.95;;;7.00;;
11496;SDS011;5805;51.542;7.230;2023-07-22T01:42:56;8.68;;;6.35;;
11496;SDS011;5805;51.542;7.230;2023-07-22T01:45:22;8.00;;;6.68;;
11496;SDS011;5805;51.542;7.230;2023-07-22T01:47:47;8.25;;;6.78;;
11496;SDS011;5805;51.542;7.230;2023-07-22T01:50:13;7.55;;;6.50;;
11496;SDS011;5805;51.542;7.230;2023-07-22T01:52:39;8.32;;;6.90;;
11496;SDS011;5805;51.542;7.230;2023-07-22T01:55:05;9.00;;;5.97;;
11496;SDS011;5805;51.542;7.230;2023-07-22T01:57:33;6.80;;;6.05;;
11496;SDS011;5805;51.542;7.230;2023-07-22T01:59:58;9.68;;;6.57;;
11496;SDS011;5805;51.542;7.230;2023-07-22T02:02:24;6.75;;;6.05;;
11496;SDS011;5805;51.542;7.230;2023-07-22T02:04:50;7.55;;;6.35;;
11496;SDS011;5805;51.542;7.230;2023-07-22T02:07:15;7.32;;;6.45;;
11496;SDS011;5805;51.542;7.230;2023-07-22T02:09:41;9.88;;;6.53;;
11496;SDS011;5805;51.542;7.230;2023-07-22T02:12:07;7.40;;;6.35;;
11496;SDS011;5805;51.542;7.230;2023-07-22T02:14:34;8.98;;;6.28;;
11496;SDS011;5805;51.542;7.230;2023-07-22T02:17:00;7.70;;;6.45;;
11496;SDS011;5805;51.542;7.230;2023-07-22T02:19:25;7.30;;;6.45;;
11496;SDS011;5805;51.542;7.230;2023-07-22T02:21:51;10.00;;;6.10;;
11496;SDS011;5805;51.542;7.230;2023-07-22T02:24:17;7.55;;;6.13;;
11496;SDS011;5805;51.542;7.230;2023-07-22T02:26:42;6.43;;;5.82;;
11496;SDS011;5805;51.542;7.230;2023-07-22T02:29:08;6.68;;;6.05;;
11496;SDS011;5805;51.542;7.230;2023-07-22T02:31:35;7.65;;;6.18;;
11496;SDS011;5805;51.542;7.230;2023-07-22T02:34:01;12.30;;;5.95;;
11496;SDS011;5805;51.542;7.230;2023-07-22T02:36:26;6.63;;;5.97;;
11496;SDS011;5805;51.542;7.230;2023-07-22T02:38:52;6.75;;;5.90;;
11496;SDS011;5805;51.542;7.230;2023-07-22T02:41:17;7.90;;;5.72;;
11496;SDS011;5805;51.542;7.230;2023-07-22T02:43:43;7.53;;;6.13;;
11496;SDS011;5805;51.542;7.230;2023-07-22T02:46:09;9.35;;;6.03;;
11496;SDS011;5805;51.542;7.230;2023-07-22T02:48:36;8.93;;;6.70;;
11496;SDS011;5805;51.542;7.230;2023-07-22T02:51:03;9.10;;;6.15;;
11496;SDS011;5805;51.542;7.230;2023-07-22T02:53:29;7.65;;;5.75;;
11496;SDS011;5805;51.542;7.230;2023-07-22T02:55:54;6.43;;;5.82;;
11496;SDS011;5805;51.542;7.230;2023-07-22T02:58:20;7.53;;;5.75;;
11496;SDS011;5805;51.542;7.230;2023-07-22T03:00:46;8.43;;;6.35;;
11496;SDS011;5805;51.542;7.230;2023-07-22T03:03:11;7.40;;;6.57;;
11496;SDS011;5805;51.542;7.230;2023-07-22T03:05:38;6.55;;;5.88;;
11496;SDS011;5805;51.542;7.230;2023-07-22T03:08:04;9.50;;;6.45;;
11496;SDS011;5805;51.542;7.230;2023-07-22T03:10:30;7.55;;;6.20;;
11496;SDS011;5805;51.542;7.230;2023-07-22T03:12:55;8.60;;;6.03;;
11496;SDS011;5805;51.542;7.230;2023-07-22T03:15:21;9.30;;;5.38;;
11496;SDS011;5805;51.542;7.230;2023-07-22T03:17:47;9.60;;;6.55;;
11496;SDS011;5805;51.542;7.230;2023-07-22T03:20:13;8.90;;;6.70;;
11496;SDS011;5805;51.542;7.230;2023-07-22T03:22:40;6.20;;;5.38;;
11496;SDS011;5805;51.542;7.230;2023-07-22T03:25:06;7.78;;;6.35;;
11496;SDS011;5805;51.542;7.230;2023-07-22T03:27:32;6.97;;;5.45;;
11496;SDS011;5805;51.542;7.230;2023-07-22T03:29:58;7.90;;;6.28;;
11496;SDS011;5805;51.542;7.230;2023-07-22T03:32:23;8.50;;;6.32;;
11496;SDS011;5805;51.542;7.230;2023-07-22T03:34:49;6.88;;;6.18;;
11496;SDS011;5805;51.542;7.230;2023-07-22T03:37:15;7.35;;;6.07;;
11496;SDS011;5805;51.542;7.230;2023-07-22T03:39:42;7.07;;;5.82;;
11496;SDS011;5805;51.542;7.230;2023-07-22T03:42:07;8.07;;;6.22;;
11496;SDS011;5805;51.542;7.230;2023-07-22T03:44:33;8.10;;;6.35;;
11496;SDS011;5805;51.542;7.230;2023-07-22T03:46:59;7.82;;;5.85;;
11496;SDS011;5805;51.542;7.230;2023-07-22T03:49:25;7.90;;;6.38;;
11496;SDS011;5805;51.542;7.230;2023-07-22T03:51:50;9.15;;;6.35;;
11496;SDS011;5805;51.542;7.230;2023-07-22T03:54:16;9.10;;;6.35;;
11496;SDS011;5805;51.542;7.230;2023-07-22T03:56:43;8.27;;;6.00;;
11496;SDS011;5805;51.542;7.230;2023-07-22T03:59:09;8.93;;;5.82;;
11496;SDS011;5805;51.542;7.230;2023-07-22T04:01:34;8.50;;;5.90;;
11496;SDS011;5805;51.542;7.230;2023-07-22T04:04:00;8.93;;;6.65;;
11496;SDS011;5805;51.542;7.230;2023-07-22T04:06:26;7.65;;;6.15;;
11496;SDS011;5805;51.542;7.230;2023-07-22T04:08:51;7.93;;;6.00;;
11496;SDS011;5805;51.542;7.230;2023-07-22T04:11:17;6.10;;;5.50;;
11496;SDS011;5805;51.542;7.230;2023-07-22T04:13:44;7.70;;;5.95;;
11496;SDS011;5805;51.542;7.230;2023-07-22T04:16:10;10.15;;;6.47;;
11496;SDS011;5805;51.542;7.230;2023-07-22T04:18:35;7.70;;;6.15;;
11496;SDS011;5805;51.542;7.230;2023-07-22T04:21:01;8.18;;;6.28;;
11496;SDS011;5805;51.542;7.230;2023-07-22T04:23:27;6.30;;;5.68;;
11496;SDS011;5805;51.542;7.230;2023-07-22T04:25:52;8.10;;;5.53;;
11496;SDS011;5805;51.542;7.230;2023-07-22T04:28:18;8.95;;;6.30;;
11496;SDS011;5805;51.542;7.230;2023-07-22T04:30:54;7.32;;;6.43;;
11496;SDS011;5805;51.542;7.230;2023-07-22T04:33:20;6.97;;;5.55;;
11496;SDS011;5805;51.542;7.230;2023-07-22T04:35:47;7.68;;;6.38;;
11496;SDS011;5805;51.542;7.230;2023-07-22T04:38:13;7.63;;;5.82;;
11496;SDS011;5805;51.542;7.230;2023-07-22T04:40:42;6.20;;;5.47;;
11496;SDS011;5805;51.542;7.230;2023-07-22T04:43:07;6.38;;;5.70;;
11496;SDS011;5805;51.542;7.230;2023-07-22T04:45:33;7.88;;;5.85;;
11496;SDS011;5805;51.542;7.230;2023-07-22T04:48:00;7.38;;;5.57;;
11496;SDS011;5805;51.542;7.230;2023-07-22T04:50:26;6.28;;;4.72;;
11496;SDS011;5805;51.542;7.230;2023-07-22T04:52:53;7.57;;;5.35;;
11496;SDS011;5805;51.542;7.230;2023-07-22T04:55:19;7.38;;;5.07;;
11496;SDS011;5805;51.542;7.230;2023-07-22T04:57:45;7.53;;;5.68;;
11496;SDS011;5805;51.542;7.230;2023-07-22T05:00:11;11.18;;;5.72;;
11496;SDS011;5805;51.542;7.230;2023-07-22T05:02:38;6.97;;;5.30;;
11496;SDS011;5805;51.542;7.230;2023-07-22T05:05:05;6.35;;;5.68;;
11496;SDS011;5805;51.542;7.230;2023-07-22T05:07:31;5.35;;;4.53;;
11496;SDS011;5805;51.542;7.230;2023-07-22T05:09:57;8.48;;;5.60;;
11496;SDS011;5805;51.542;7.230;2023-07-22T05:12:22;9.15;;;5.60;;
11496;SDS011;5805;51.542;7.230;2023-07-22T05:14:48;6.65;;;5.50;;
11496;SDS011;5805;51.542;7.230;2023-07-22T05:17:14;7.18;;;5.55;;
11496;SDS011;5805;51.542;7.230;2023-07-22T05:19:39;6.68;;;5.57;;
11496;SDS011;5805;51.542;7.230;2023-07-22T05:22:06;7.85;;;5.20;;
11496;SDS011;5805;51.542;7.230;2023-07-22T05:24:32;6.95;;;4.97;;
11496;SDS011;5805;51.542;7.230;2023-07-22T05:26:58;8.68;;;5.63;;
11496;SDS011;5805;51.542;7.230;2023-07-22T05:29:24;7.00;;;4.82;;
11496;SDS011;5805;51.542;7.230;2023-07-22T05:31:49;7.90;;;4.85;;
11496;SDS011;5805;51.542;7.230;2023-07-22T05:34:15;9.13;;;5.30;;
11496;SDS011;5805;51.542;7.230;2023-07-22T05:36:41;7.57;;;5.28;;
11496;SDS011;5805;51.542;7.230;2023-07-22T05:39:08;7.30;;;5.38;;
11496;SDS011;5805;51.542;7.230;2023-07-22T05:41:33;9.80;;;5.00;;
11496;SDS011;5805;51.542;7.230;2023-07-22T05:43:59;7.10;;;5.10;;
11496;SDS011;5805;51.542;7.230;2023-07-22T05:46:25;5.68;;;4.68;;
11496;SDS011;5805;51.542;7.230;2023-07-22T05:48:51;8.77;;;4.97;;
11496;SDS011;5805;51.542;7.230;2023-07-22T05:51:16;8.20;;;5.18;;
11496;SDS011;5805;51.542;7.230;2023-07-22T05:53:43;9.27;;;4.75;;
11496;SDS011;5805;51.542;7.230;2023-07-22T05:56:10;5.72;;;4.95;;
11496;SDS011;5805;51.542;7.230;2023-07-22T05:58:36;6.93;;;5.00;;
11496;SDS011;5805;51.542;7.230;2023-07-22T06:01:02;6.68;;;4.43;;
11496;SDS011;5805;51.542;7.230;2023-07-22T06:03:27;5.40;;;4.88;;
11496;SDS011;5805;51.542;7.230;2023-07-22T06:05:53;5.95;;;5.35;;
11496;SDS011;5805;51.542;7.230;2023-07-22T06:08:19;5.60;;;5.00;;
11496;SDS011;5805;51.542;7.230;2023-07-22T06:10:44;5.40;;;4.90;;
11496;SDS011;5805;51.542;7.230;2023-07-22T06:13:12;6.72;;;4.53;;
11496;SDS011;5805;51.542;7.230;2023-07-22T06:15:37;5.30;;;4.80;;
11496;SDS011;5805;51.542;7.230;2023-07-22T06:18:03;5.18;;;4.60;;
11496;SDS011;5805;51.542;7.230;2023-07-22T06:20:29;7.38;;;4.97;;
11496;SDS011;5805;51.542;7.230;2023-07-22T06:22:55;5.72;;;4.88;;
11496;SDS011;5805;51.542;7.230;2023-07-22T06:25:20;6.25;;;4.63;;
11496;SDS011;5805;51.542;7.230;2023-07-22T06:27:46;7.30;;;5.57;;
11496;SDS011;5805;51.542;7.230;2023-07-22T06:30:13;5.50;;;4.55;;
11496;SDS011;5805;51.542;7.230;2023-07-22T06:32:39;6.60;;;5.45;;
11496;SDS011;5805;51.542;7.230;2023-07-22T06:35:05;6.63;;;5.28;;
11496;SDS011;5805;51.542;7.230;2023-07-22T06:37:31;6.68;;;5.95;;
11496;SDS011;5805;51.542;7.230;2023-07-22T06:39:56;7.15;;;5.25;;
11496;SDS011;5805;51.542;7.230;2023-07-22T06:42:22;6.63;;;5.93;;
11496;SDS011;5805;51.542;7.230;2023-07-22T06:44:48;6.82;;;5.70;;
11496;SDS011;5805;51.542;7.230;2023-07-22T06:47:15;7.85;;;5.35;;
11496;SDS011;5805;51.542;7.230;2023-07-22T06:49:41;9.20;;;6.18;;
11496;SDS011;5805;51.542;7.230;2023-07-22T06:52:07;9.20;;;5.95;;
11496;SDS011;5805;51.542;7.230;2023-07-22T06:54:32;8.85;;;6.00;;
11496;SDS011;5805;51.542;7.230;2023-07-22T06:56:58;8.48;;;5.82;;
11496;SDS011;5805;51.542;7.230;2023-07-22T06:59:24;9.27;;;6.68;;
11496;SDS011;5805;51.542;7.230;2023-07-22T07:01:49;7.90;;;6.13;;
11496;SDS011;5805;51.542;7.230;2023-07-22T07:04:16;10.07;;;6.13;;
11496;SDS011;5805;51.542;7.230;2023-07-22T07:06:42;7.53;;;5.85;;
11496;SDS011;5805;51.542;7.230;2023-07-22T07:09:08;6.82;;;5.47;;
11496;SDS011;5805;51.542;7.230;2023-07-22T07:11:33;8.63;;;6.50;;
11496;SDS011;5805;51.542;7.230;2023-07-22T07:13:59;6.28;;;5.65;;
11496;SDS011;5805;51.542;7.230;2023-07-22T07:16:25;8.93;;;6.55;;
11496;SDS011;5805;51.542;7.230;2023-07-22T07:18:51;8.68;;;6.35;;
11496;SDS011;5805;51.542;7.230;2023-07-22T07:21:19;8.65;;;6.47;;
11496;SDS011;5805;51.542;7.230;2023-07-22T07:23:45;11.85;;;6.82;;
11496;SDS011;5805;51.542;7.230;2023-07-22T07:26:11;7.93;;;6.22;;
11496;SDS011;5805;51.542;7.230;2023-07-22T07:28:36;7.85;;;7.00;;
11496;SDS011;5805;51.542;7.230;2023-07-22T07:31:02;7.75;;;6.10;;
11496;SDS011;5805;51.542;7.230;2023-07-22T07:33:28;7.65;;;6.07;;
11496;SDS011;5805;51.542;7.230;2023-07-22T07:35:54;6.43;;;5.80;;
11496;SDS011;5805;51.542;7.230;2023-07-22T07:38:21;11.32;;;6.57;;
11496;SDS011;5805;51.542;7.230;2023-07-22T07:40:46;6.95;;;6.18;;
11496;SDS011;5805;51.542;7.230;2023-07-22T07:43:17;9.25;;;6.63;;
11496;SDS011;5805;51.542;7.230;2023-07-22T07:45:42;6.45;;;5.75;;
11496;SDS011;5805;51.542;7.230;2023-07-22T07:48:08;7.20;;;6.03;;
11496;SDS011;5805;51.542;7.230;2023-07-22T07:50:34;8.57;;;6.43;;
11496;SDS011;5805;51.542;7.230;2023-07-22T07:52:59;9.63;;;5.88;;
11496;SDS011;5805;51.542;7.230;2023-07-22T07:55:26;7.25;;;6.22;;
11496;SDS011;5805;51.542;7.230;2023-07-22T07:57:52;7.90;;;6.07;;
11496;SDS011;5805;51.542;7.230;2023-07-22T08:00:18;7.32;;;6.55;;
11496;SDS011;5805;51.542;7.230;2023-07-22T08:02:44;7.60;;;6.07;;
11496;SDS011;5805;51.542;7.230;2023-07-22T08:05:09;7.50;;;6.07;;
11496;SDS011;5805;51.542;7.230;2023-07-22T08:07:35;7.47;;;5.45;;
11496;SDS011;5805;51.542;7.230;2023-07-22T08:10:01;8.45;;;5.68;;
11496;SDS011;5805;51.542;7.230;2023-07-22T08:12:28;10.18;;;6.57;;
11496;SDS011;5805;51.542;7.230;2023-07-22T08:14:53;8.70;;;6.10;;
11496;SDS011;5805;51.542;7.230;2023-07-22T08:17:19;8.35;;;6.18;;
11496;SDS011;5805;51.542;7.230;2023-07-22T08:19:45;7.47;;;5.97;;
11496;SDS011;5805;51.542;7.230;2023-07-22T08:22:10;8.50;;;6.60;;
11496;SDS011;5805;51.542;7.230;2023-07-22T08:24:36;6.88;;;6.15;;
11496;SDS011;5805;51.542;7.230;2023-07-22T08:27:02;10.52;;;6.30;;
11496;SDS011;5805;51.542;7.230;2023-07-22T08:29:29;6.65;;;5.95;;
11496;SDS011;5805;51.542;7.230;2023-07-22T08:31:55;7.55;;;6.32;;
11496;SDS011;5805;51.542;7.230;2023-07-22T08:34:21;7.53;;;5.82;;
11496;SDS011;5805;51.542;7.230;2023-07-22T08:36:46;7.90;;;6.10;;
11496;SDS011;5805;51.542;7.230;2023-07-22T08:39:12;6.95;;;6.35;;
11496;SDS011;5805;51.542;7.230;2023-07-22T08:41:38;7.70;;;6.75;;
11496;SDS011;5805;51.542;7.230;2023-07-22T08:44:05;7.88;;;6.25;;
11496;SDS011;5805;51.542;7.230;2023-07-22T08:46:37;7.18;;;6.25;;
11496;SDS011;5805;51.542;7.230;2023-07-22T08:49:04;7.28;;;6.50;;
11496;SDS011;5805;51.542;7.230;2023-07-22T08:51:31;6.82;;;6.03;;
11496;SDS011;5805;51.542;7.230;2023-07-22T08:53:58;8.02;;;6.20;;
11496;SDS011;5805;51.542;7.230;2023-07-22T08:56:25;7.10;;;6.30;;
11496;SDS011;5805;51.542;7.230;2023-07-22T08:58:53;8.00;;;5.63;;
11496;SDS011;5805;51.542;7.230;2023-07-22T09:01:19;7.20;;;6.50;;
11496;SDS011;5805;51.542;7.230;2023-07-22T09:03:48;8.60;;;6.70;;
11496;SDS011;5805;51.542;7.230;2023-07-22T09:06:14;7.00;;;6.30;;
11496;SDS011;5805;51.542;7.230;2023-07-22T09:08:39;8.13;;;5.55;;
11496;SDS011;5805;51.542;7.230;2023-07-22T09:11:07;6.55;;;5.93;;
11496;SDS011;5805;51.542;7.230;2023-07-22T09:13:32;6.65;;;6.05;;
11496;SDS011;5805;51.542;7.230;2023-07-22T09:16:00;6.10;;;5.50;;
11496;SDS011;5805;51.542;7.230;2023-07-22T09:18:27;9.60;;;5.90;;
11496;SDS011;5805;51.542;7.230;2023-07-22T09:20:54;5.68;;;5.18;;
11496;SDS011;5805;51.542;7.230;2023-07-22T09:23:31;5.47;;;4.97;;
11496;SDS011;5805;51.542;7.230;2023-07-22T09:26:07;6.18;;;5.57;;
11496;SDS011;5805;51.542;7.230;2023-07-22T09:28:47;6.28;;;5.22;;
11496;SDS011;5805;51.542;7.230;2023-07-22T09:31:13;5.97;;;5.20;;
11496;SDS011;5805;51.542;7.230;2023-07-22T09:33:39;5.30;;;4.80;;
11496;SDS011;5805;51.542;7.230;2023-07-22T09:36:06;5.47;;;4.97;;
11496;SDS011;5805;51.542;7.230;2023-07-22T09:38:31;5.63;;;5.07;;
11496;SDS011;5805;51.542;7.230;2023-07-22T09:40:57;5.25;;;4.60;;
11496;SDS011;5805;51.542;7.230;2023-07-22T09:43:23;5.65;;;4.53;;
11496;SDS011;5805;51.542;7.230;2023-07-22T09:45:49;7.20;;;4.70;;
11496;SDS011;5805;51.542;7.230;2023-07-22T09:48:15;5.00;;;4.50;;
11496;SDS011;5805;51.542;7.230;2023-07-22T09:50:40;5.10;;;4.57;;
11496;SDS011;5805;51.542;7.230;2023-07-22T09:53:08;6.53;;;4.72;;
11496;SDS011;5805;51.542;7.230;2023-07-22T09:55:39;6.43;;;4.75;;
11496;SDS011;5805;51.542;7.230;2023-07-22T09:58:05;6.13;;;4.88;;
11496;SDS011;5805;51.542;7.230;2023-07-22T10:00:32;6.28;;;4.22;;
11496;SDS011;5805;51.542;7.230;2023-07-22T10:02:59;4.45;;;3.92;;
11496;SDS011;5805;51.542;7.230;2023-07-22T10:05:26;6.22;;;4.82;;
11496;SDS011;5805;51.542;7.230;2023-07-22T10:07:54;4.95;;;4.28;;
11496;SDS011;5805;51.542;7.230;2023-07-22T10:10:23;4.85;;;4.45;;
11496;SDS011;5805;51.542;7.230;2023-07-22T10:12:51;6.50;;;4.22;;
11496;SDS011;5805;51.542;7.230;2023-07-22T10:15:19;6.75;;;4.10;;
11496;SDS011;5805;51.542;7.230;2023-07-22T10:17:44;5.63;;;4.50;;
11496;SDS011;5805;51.542;7.230;2023-07-22T10:20:11;5.57;;;4.55;;
11496;SDS011;5805;51.542;7.230;2023-07-22T10:22:38;7.28;;;4.15;;
11496;SDS011;5805;51.542;7.230;2023-07-22T10:25:04;5.10;;;4.15;;
11496;SDS011;5805;51.542;7.230;2023-07-22T10:27:32;5.43;;;3.90;;
11496;SDS011;5805;51.542;7.230;2023-07-22T10:29:59;4.43;;;4.00;;
11496;SDS011;5805;51.542;7.230;2023-07-22T10:32:25;8.35;;;4.13;;
11496;SDS011;5805;51.542;7.230;2023-07-22T10:34:57;4.15;;;3.75;;
11496;SDS011;5805;51.542;7.230;2023-07-22T10:37:29;4.25;;;3.42;;
11496;SDS011;5805;51.542;7.230;2023-07-22T10:39:58;5.20;;;3.95;;
11496;SDS011;5805;51.542;7.230;2023-07-22T10:42:24;3.92;;;3.60;;
11496;SDS011;5805;51.542;7.230;2023-07-22T10:44:52;4.20;;;3.80;;
11496;SDS011;5805;51.542;7.230;2023-07-22T10:47:30;6.18;;;3.65;;
11496;SDS011;5805;51.542;7.230;2023-07-22T10:49:57;5.15;;;3.38;;
11496;SDS011;5805;51.542;7.230;2023-07-22T10:52:38;3.50;;;3.20;;
11496;SDS011;5805;51.542;7.230;2023-07-22T10:55:13;4.65;;;3.65;;
11496;SDS011;5805;51.542;7.230;2023-07-22T10:57:47;5.05;;;3.50;;
11496;SDS011;5805;51.542;7.230;2023-07-22T11:00:18;4.03;;;3.63;;
11496;SDS011;5805;51.542;7.230;2023-07-22T11:02:45;3.58;;;3.20;;
11496;SDS011;5805;51.542;7.230;2023-07-22T11:05:12;6.00;;;3.55;;
11496;SDS011;5805;51.542;7.230;2023-07-22T11:07:42;3.33;;;2.90;;
11496;SDS011;5805;51.542;7.230;2023-07-22T11:10:13;5.82;;;3.67;;
11496;SDS011;5805;51.542;7.230;2023-07-22T11:12:40;6.03;;;3.53;;
11496;SDS011;5805;51.542;7.230;2023-07-22T11:15:08;4.43;;;3.40;;
11496;SDS011;5805;51.542;7.230;2023-07-22T11:17:35;5.78;;;2.80;;
11496;SDS011;5805;51.542;7.230;2023-07-22T11:20:02;3.20;;;2.90;;
11496;SDS011;5805;51.542;7.230;2023-07-22T11:22:28;3.00;;;2.60;;
11496;SDS011;5805;51.542;7.230;2023-07-22T11:24:54;4.35;;;2.97;;
11496;SDS011;5805;51.542;7.230;2023-07-22T11:27:20;6.82;;;3.13;;
11496;SDS011;5805;51.542;7.230;2023-07-22T11:29:47;6.45;;;2.78;;
11496;SDS011;5805;51.542;7.230;2023-07-22T11:32:16;3.28;;;2.75;;
11496;SDS011;5805;51.542;7.230;2023-07-22T11:34:44;6.18;;;2.60;;
11496;SDS011;5805;51.542;7.230;2023-07-22T11:37:10;3.78;;;2.70;;
11496;SDS011;5805;51.542;7.230;2023-07-22T11:39:36;4.13;;;2.33;;
11496;SDS011;5805;51.542;7.230;2023-07-22T11:42:02;3.53;;;2.72;;
11496;SDS011;5805;51.542;7.230;2023-07-22T11:44:29;3.30;;;2.50;;
11496;SDS011;5805;51.542;7.230;2023-07-22T11:46:55;3.22;;;2.72;;
11496;SDS011;5805;51.542;7.230;2023-07-22T11:49:23;2.63;;;2.40;;
11496;SDS011;5805;51.542;7.230;2023-07-22T11:51:51;3.47;;;2.40;;
11496;SDS011;5805;51.542;7.230;2023-07-22T11:54:20;4.65;;;2.65;;
11496;SDS011;5805;51.542;7.230;2023-07-22T11:56:46;4.57;;;2.70;;
11496;SDS011;5805;51.542;7.230;2023-07-22T11:59:11;2.58;;;2.38;;
11496;SDS011;5805;51.542;7.230;2023-07-22T12:01:37;3.30;;;2.30;;
11496;SDS011;5805;51.542;7.230;2023-07-22T12:04:03;2.78;;;2.00;;
11496;SDS011;5805;51.542;7.230;2023-07-22T12:06:35;2.78;;;2.38;;
11496;SDS011;5805;51.542;7.230;2023-07-22T12:09:02;2.92;;;2.08;;
11496;SDS011;5805;51.542;7.230;2023-07-22T12:11:28;2.38;;;2.10;;
11496;SDS011;5805;51.542;7.230;2023-07-22T12:14:07;3.65;;;2.30;;
11496;SDS011;5805;51.542;7.230;2023-07-22T12:16:34;2.13;;;1.90;;
11496;SDS011;5805;51.542;7.230;2023-07-22T12:19:00;2.42;;;2.15;;
11496;SDS011;5805;51.542;7.230;2023-07-22T12:21:27;2.30;;;2.10;;
11496;SDS011;5805;51.542;7.230;2023-07-22T12:23:53;2.60;;;2.05;;
11496;SDS011;5805;51.542;7.230;2023-07-22T12:26:20;5.97;;;2.22;;
11496;SDS011;5805;51.542;7.230;2023-07-22T12:28:46;2.40;;;2.20;;
11496;SDS011;5805;51.542;7.230;2023-07-22T12:31:11;3.35;;;2.35;;
11496;SDS011;5805;51.542;7.230;2023-07-22T12:33:37;2.75;;;1.90;;
11496;SDS011;5805;51.542;7.230;2023-07-22T12:36:03;2.33;;;2.13;;
11496;SDS011;5805;51.542;7.230;2023-07-22T12:38:29;3.88;;;2.10;;
11496;SDS011;5805;51.542;7.230;2023-07-22T12:40:55;4.53;;;2.15;;
11496;SDS011;5805;51.542;7.230;2023-07-22T12:43:22;2.92;;;2.00;;
11496;SDS011;5805;51.542;7.230;2023-07-22T12:45:47;3.47;;;2.20;;
11496;SDS011;5805;51.542;7.230;2023-07-22T12:48:13;1.92;;;1.75;;
11496;SDS011;5805;51.542;7.230;2023-07-22T12:50:39;3.38;;;2.03;;
11496;SDS011;5805;51.542;7.230;2023-07-22T12:53:04;3.35;;;2.05;;
11496;SDS011;5805;51.542;7.230;2023-07-22T12:55:30;4.35;;;2.03;;
11496;SDS011;5805;51.542;7.230;2023-07-22T12:57:56;2.13;;;1.85;;
11496;SDS011;5805;51.542;7.230;2023-07-22T13:00:23;1.88;;;1.73;;
11496;SDS011;5805;51.542;7.230;2023-07-22T13:02:49;3.53;;;2.00;;
11496;SDS011;5805;51.542;7.230;2023-07-22T13:05:14;2.08;;;1.88;;
11496;SDS011;5805;51.542;7.230;2023-07-22T13:07:40;3.72;;;2.10;;
11496;SDS011;5805;51.542;7.230;2023-07-22T13:10:06;2.20;;;1.80;;
11496;SDS011;5805;51.542;7.230;2023-07-22T13:12:32;2.75;;;1.75;;
11496;SDS011;5805;51.542;7.230;2023-07-22T13:14:58;2.30;;;2.10;;
11496;SDS011;5805;51.542;7.230;2023-07-22T13:17:25;2.88;;;1.77;;
11496;SDS011;5805;51.542;7.230;2023-07-22T13:19:51;5.75;;;2.22;;
11496;SDS011;5805;51.542;7.230;2023-07-22T13:22:16;3.45;;;2.17;;
11496;SDS011;5805;51.542;7.230;2023-07-22T13:24:42;2.60;;;2.10;;
11496;SDS011;5805;51.542;7.230;2023-07-22T13:27:08;3.30;;;2.40;;
11496;SDS011;5805;51.542;7.230;2023-07-22T13:29:33;3.35;;;2.00;;
11496;SDS011;5805;51.542;7.230;2023-07-22T13:31:59;2.53;;;1.98;;
11496;SDS011;5805;51.542;7.230;2023-07-22T13:34:26;3.58;;;2.30;;
11496;SDS011;5805;51.542;7.230;2023-07-22T13:36:52;2.65;;;2.13;;
11496;SDS011;5805;51.542;7.230;2023-07-22T13:39:17;3.45;;;2.40;;
11496;SDS011;5805;51.542;7.230;2023-07-22T13:41:43;2.65;;;2.45;;
11496;SDS011;5805;51.542;7.230;2023-07-22T13:44:09;6.10;;;2.53;;
11496;SDS011;5805;51.542;7.230;2023-07-22T13:46:34;5.38;;;2.30;;
11496;SDS011;5805;51.542;7.230;2023-07-22T13:49:00;3.10;;;2.38;;
11496;SDS011;5805;51.542;7.230;2023-07-22T13:51:27;4.68;;;2.50;;
11496;SDS011;5805;51.542;7.230;2023-07-22T13:53:53;2.55;;;2.30;;
11496;SDS011;5805;51.542;7.230;2023-07-22T13:56:18;3.28;;;2.30;;
11496;SDS011;5805;51.542;7.230;2023-07-22T13:58:44;7.07;;;2.60;;
11496;SDS011;5805;51.542;7.230;2023-07-22T14:01:10;2.55;;;2.35;;
11496;SDS011;5805;51.542;7.230;2023-07-22T14:03:35;3.47;;;2.20;;
11496;SDS011;5805;51.542;7.230;2023-07-22T14:06:01;2.90;;;2.47;;
11496;SDS011;5805;51.542;7.230;2023-07-22T14:08:28;3.88;;;2.50;;
11496;SDS011;5805;51.542;7.230;2023-07-22T14:10:54;4.43;;;2.20;;
11496;SDS011;5805;51.542;7.230;2023-07-22T14:13:19;3.90;;;2.40;;
11496;SDS011;5805;51.542;7.230;2023-07-22T14:15:45;2.83;;;2.22;;
11496;SDS011;5805;51.542;7.230;2023-07-22T14:18:11;2.83;;;2.20;;
11496;SDS011;5805;51.542;7.230;2023-07-22T14:20:36;2.85;;;2.33;;
11496;SDS011;5805;51.542;7.230;2023-07-22T14:23:02;2.88;;;2.60;;
11496;SDS011;5805;51.542;7.230;2023-07-22T14:25:29;3.80;;;2.28;;
11496;SDS011;5805;51.542;7.230;2023-07-22T14:27:55;2.55;;;2.33;;
11496;SDS011;5805;51.542;7.230;2023-07-22T14:30:20;3.72;;;2.25;;
11496;SDS011;5805;51.542;7.230;2023-07-22T14:32:46;3.38;;;2.30;;
11496;SDS011;5805;51.542;7.230;2023-07-22T14:35:12;3.65;;;2.65;;
11496;SDS011;5805;51.542;7.230;2023-07-22T14:37:37;2.22;;;2.03;;
11496;SDS011;5805;51.542;7.230;2023-07-22T14:40:03;2.75;;;2.42;;
11496;SDS011;5805;51.542;7.230;2023-07-22T14:42:31;3.90;;;2.03;;
11496;SDS011;5805;51.542;7.230;2023-07-22T14:44:57;2.10;;;1.90;;
11496;SDS011;5805;51.542;7.230;2023-07-22T14:47:23;3.40;;;2.17;;
11496;SDS011;5805;51.542;7.230;2023-07-22T14:49:48;4.30;;;2.28;;
11496;SDS011;5805;51.542;7.230;2023-07-22T14:52:14;2.22;;;2.03;;
11496;SDS011;5805;51.542;7.230;2023-07-22T14:54:40;2.47;;;2.10;;